createdAt,value
2022-12-08T00:07:57.880Z,12.20
2022-12-08T00:18:03.230Z,12.10
2022-12-08T00:28:07.146Z,12.00
2022-12-08T00:38:12.310Z,12.10
2022-12-08T00:48:16.164Z,12.20
2022-12-08T00:58:21.574Z,12.10
2022-12-08T01:08:25.315Z,12.00
2022-12-08T01:18:31.194Z,11.90
2022-12-08T01:28:35.199Z,11.90
2022-12-08T01:38:40.358Z,11.80
2022-12-08T01:48:44.175Z,11.60
2022-12-08T01:58:53.420Z,11.50
2022-12-08T02:08:58.192Z,11.10
2022-12-08T02:19:31.954Z,11.00
2022-12-08T02:30:01.867Z,11.00
2022-12-08T02:40:14.776Z,10.80
2022-12-08T02:50:18.638Z,10.70
2022-12-08T03:00:26.175Z,10.80
2022-12-08T03:10:35.793Z,10.90
2022-12-08T03:20:42.246Z,11.00
2022-12-08T03:30:48.869Z,11.20
2022-12-08T03:41:07.792Z,11.30
2022-12-08T03:51:12.022Z,11.40
2022-12-08T04:01:17.668Z,11.40
2022-12-08T04:11:21.842Z,11.40
2022-12-08T04:21:26.975Z,11.40
2022-12-08T04:31:31.350Z,11.30
2022-12-08T04:41:36.723Z,11.30
2022-12-08T04:51:40.550Z,11.20
2022-12-08T05:01:45.769Z,11.20
2022-12-08T05:11:49.712Z,11.00
2022-12-08T05:21:54.856Z,11.00
2022-12-08T05:31:58.674Z,10.90
2022-12-08T05:42:04.144Z,10.60
2022-12-08T05:52:08.341Z,10.30
2022-12-08T06:02:13.582Z,10.00
2022-12-08T06:12:17.417Z,9.90
2022-12-08T06:22:22.795Z,10.20
2022-12-08T06:32:27.722Z,10.30
2022-12-08T06:42:45.102Z,10.50
2022-12-08T06:53:00.799Z,10.60
2022-12-08T07:03:09.259Z,10.60
2022-12-08T07:13:13.022Z,10.90
2022-12-08T07:23:18.207Z,11.10
2022-12-08T07:33:22.098Z,11.30
2022-12-08T07:43:27.384Z,11.40
2022-12-08T07:53:31.408Z,11.70
2022-12-08T08:03:36.601Z,11.90
2022-12-08T08:13:40.523Z,12.10
2022-12-08T08:23:45.665Z,12.20
2022-12-08T08:33:51.895Z,12.40
2022-12-08T08:43:57.769Z,12.60
2022-12-08T08:54:01.619Z,12.70
2022-12-08T09:04:07.721Z,13.00
2022-12-08T09:14:13.135Z,13.50
2022-12-08T09:24:18.464Z,14.10
2022-12-08T09:34:22.279Z,14.60
2022-12-08T09:44:47.936Z,15.40
2022-12-08T09:54:51.833Z,15.70
2022-12-08T10:04:59.586Z,15.80
2022-12-08T10:15:12.496Z,16.00
2022-12-08T10:25:20.981Z,16.10
2022-12-08T10:35:25.781Z,16.20
2022-12-08T10:45:33.598Z,17.30
2022-12-08T10:55:44.018Z,16.50
2022-12-08T11:05:49.810Z,16.20
2022-12-08T11:15:55.230Z,15.80
2022-12-08T11:26:07.563Z,15.30
2022-12-08T11:36:16.031Z,15.30
2022-12-08T11:46:25.087Z,15.20
2022-12-08T11:56:35.055Z,15.10
2022-12-08T12:07:10.020Z,15.50
2022-12-08T12:17:32.200Z,15.50
2022-12-08T12:27:40.828Z,15.60
2022-12-08T12:37:45.024Z,15.40
2022-12-08T12:47:56.341Z,15.50
2022-12-08T12:58:00.706Z,15.30
2022-12-08T13:08:09.273Z,15.10
2022-12-08T13:18:22.160Z,14.60
2022-12-08T13:28:30.761Z,14.50
2022-12-08T13:38:38.443Z,14.60
2022-12-08T13:59:28.537Z,14.30
2022-12-08T14:09:38.338Z,14.40
2022-12-08T14:19:45.010Z,14.40
2022-12-08T14:29:52.535Z,14.40
2022-12-08T14:40:02.159Z,14.30
2022-12-08T14:50:38.759Z,14.40
2022-12-08T15:00:47.825Z,14.30
2022-12-08T15:11:27.738Z,14.20
2022-12-08T15:21:34.832Z,14.00
2022-12-08T15:31:40.040Z,14.00
2022-12-08T15:41:43.868Z,13.70
2022-12-08T15:51:49.769Z,13.60
2022-12-08T16:01:53.977Z,13.80
2022-12-08T16:12:16.663Z,13.70
2022-12-08T16:22:54.184Z,13.70
2022-12-08T16:32:48.338Z,13.70
2022-12-08T16:42:52.183Z,13.60
2022-12-08T16:53:00.773Z,13.90
2022-12-08T17:03:04.693Z,13.50
2022-12-08T17:13:11.089Z,13.50
2022-12-08T17:23:14.891Z,13.50
2022-12-08T17:33:26.620Z,13.70
2022-12-08T17:43:30.855Z,13.60
2022-12-08T17:53:37.665Z,13.70
2022-12-08T18:03:41.787Z,13.80
2022-12-08T18:13:47.277Z,13.70
2022-12-08T18:23:51.502Z,13.60
2022-12-08T18:33:56.653Z,13.60
2022-12-08T18:44:00.717Z,13.90
2022-12-08T18:54:06.382Z,13.90
2022-12-08T19:14:36.141Z,13.60
2022-12-08T19:24:40.222Z,13.50
2022-12-08T19:34:45.336Z,13.70
2022-12-08T19:44:54.903Z,13.90
2022-12-08T19:55:00.325Z,13.90
2022-12-08T20:05:04.656Z,13.80
2022-12-08T20:15:11.354Z,13.60
2022-12-08T20:25:15.500Z,13.70
2022-12-08T20:35:21.052Z,13.70
2022-12-08T20:45:25.464Z,13.70
2022-12-08T20:55:30.911Z,13.60
2022-12-08T21:05:36.700Z,13.70
2022-12-08T21:15:46.874Z,13.80
2022-12-08T21:25:51.171Z,14.00
2022-12-08T21:36:08.192Z,13.90
2022-12-08T21:46:17.485Z,14.00
2022-12-08T21:56:23.525Z,14.00
2022-12-08T22:06:27.285Z,14.10
2022-12-08T22:16:32.824Z,14.10
2022-12-08T22:26:37.122Z,14.10
2022-12-08T22:36:42.849Z,14.10
2022-12-08T22:46:46.764Z,14.10
2022-12-08T22:56:52.760Z,14.10
2022-12-08T23:06:56.494Z,14.20
2022-12-08T23:17:01.953Z,14.10
2022-12-08T23:27:05.957Z,14.20
2022-12-08T23:37:11.068Z,13.90
2022-12-08T23:47:14.953Z,13.70
2022-12-08T23:57:20.883Z,13.80
